Terminal Aerodrome Forecast
Issued by NWS Buffalo, NY

Home | Current Version | Previous Version | Text Only | Print | Product List | Glossary On
Versions: 1 2 3 4 5 6 7 8 9 10 11 12 13 14 15 16 17 18 19 20 21 22 23 24 25
730
FTUS41 KBUF 291130
TAFROC
TAF
KROC 291130Z 2912/3012 05006KT P6SM SCT070 BKN150
     FM291600 04009KT P6SM OVC080
     FM292100 05010KT P6SM VCSH BKN035 OVC070
     FM292300 32004KT P6SM BKN035 OVC070
     FM300100 00000KT P6SM BKN050 OVC070
     FM300700 00000KT P6SM FEW035 SCT130=

USA.gov is the U.S. government's official web portal to all federal, state and local government web resources and services.